Time;durP1;ratioP1;P1;durP2;ratioP2;P2;SDS_P1;SDS_P2;PMS_P1;PMS_P2;Temp;Humidity;BMP_temperature;BMP_pressure;BME280_temperature;BME280_humidity;BME280_pressure;Samples;Min_cycle;Max_cycle;Signal;HPM_P1;HPM_P2
2021/12/01 00:00:09;;;;;;;327.93;82.47;;;;;;;2.12;60.88;99400.09;342332;28;1362;-70
2021/12/01 00:00:21;;;;;;;325.24;82.12;;;;;;;2.13;61.47;99394.91;344889;28;2132;-70
2021/12/01 00:00:33;;;;;;;325.13;82.78;;;;;;;2.14;61.14;99399.19;344832;28;1193;-70
2021/12/01 00:00:43;;;;;;;325.65;83.13;;;;;;;2.16;61.18;99400.03;343732;28;1991;-70
2021/12/01 00:00:54;;;;;;;326.30;82.57;;;;;;;2.15;61.02;99400.91;345156;28;1243;-70
2021/12/01 00:01:04;;;;;;;327.07;83.60;;;;;;;2.15;60.72;99395.75;346447;28;859;-70
2021/12/01 00:01:14;;;;;;;328.05;84.13;;;;;;;2.15;61.11;99403.50;346515;28;1637;-70
2021/12/01 00:01:25;;;;;;;326.77;83.70;;;;;;;2.15;60.85;99400.91;345178;28;1192;-70
2021/12/01 00:01:35;;;;;;;326.92;82.43;;;;;;;2.17;60.51;99400.84;345192;28;1979;-70
2021/12/01 00:01:46;;;;;;;325.93;83.37;;;;;;;2.18;60.80;99400.84;345214;28;2099;-70
2021/12/01 00:01:56;;;;;;;325.88;82.97;;;;;;;2.17;60.79;99399.13;345220;28;842;-70
2021/12/01 00:02:06;;;;;;;325.73;83.77;;;;;;;2.15;60.62;99403.50;345165;28;916;-70
2021/12/01 00:02:17;;;;;;;325.50;82.03;;;;;;;2.12;60.16;99395.78;344922;28;1656;-70
2021/12/01 00:02:27;;;;;;;324.90;81.87;;;;;;;2.12;60.38;99398.34;343492;28;2725;-70
2021/12/01 00:02:37;;;;;;;324.13;80.80;;;;;;;2.13;59.97;99397.50;343688;28;2081;-70
2021/12/01 00:02:53;;;;;;;324.03;80.60;;;;;;;2.12;60.50;99403.53;343725;28;2001;-70
2021/12/01 00:03:03;;;;;;;326.85;82.80;;;;;;;2.13;60.44;99397.50;343738;28;881;-70
2021/12/01 00:03:14;;;;;;;327.35;82.57;;;;;;;2.15;60.40;99400.06;342661;28;909;-70
2021/12/01 00:03:24;;;;;;;327.37;82.90;;;;;;;2.15;59.92;99398.31;345240;28;900;-70
2021/12/01 00:03:35;;;;;;;326.10;81.70;;;;;;;2.13;60.26;99397.50;344020;28;1631;-70
2021/12/01 00:03:45;;;;;;;326.00;83.13;;;;;;;2.14;60.45;99400.91;345031;28;1782;-70
2021/12/01 00:03:55;;;;;;;326.27;83.40;;;;;;;2.13;59.65;99389.75;344840;28;1344;-70
2021/12/01 00:04:06;;;;;;;327.20;84.97;;;;;;;2.15;59.85;99395.75;346044;28;2001;-70
2021/12/01 00:04:16;;;;;;;327.05;84.03;;;;;;;2.17;59.23;99393.97;345152;28;1811;-70
2021/12/01 00:04:27;;;;;;;325.90;82.77;;;;;;;2.18;59.60;99395.69;343936;28;888;-70
2021/12/01 00:04:37;;;;;;;326.98;83.75;;;;;;;2.21;59.67;99397.38;342370;28;878;-70
2021/12/01 00:04:47;;;;;;;326.77;83.40;;;;;;;2.20;59.65;99396.53;342418;28;1975;-70
2021/12/01 00:04:58;;;;;;;325.95;82.88;;;;;;;2.21;59.57;99398.22;347772;28;1336;-70
2021/12/01 00:05:08;;;;;;;325.67;82.10;;;;;;;2.22;59.54;99397.38;346478;28;2116;-70
2021/12/01 00:05:20;;;;;;;325.77;82.28;;;;;;;2.23;59.87;99393.06;345148;28;905;-70
2021/12/01 00:05:31;;;;;;;326.05;82.20;;;;;;;2.25;59.61;99396.47;346451;28;1618;-70
2021/12/01 00:05:41;;;;;;;325.50;81.74;;;;;;;2.25;59.58;99392.16;346639;28;951;-70
2021/12/01 00:05:52;;;;;;;325.93;82.03;;;;;;;2.25;60.03;99397.31;345385;28;1726;-70
2021/12/01 00:06:03;;;;;;;326.20;82.00;;;;;;;2.27;60.11;99400.75;344328;28;1664;-70
2021/12/01 00:06:13;;;;;;;325.30;81.88;;;;;;;2.26;59.88;99393.88;345285;28;849;-70
2021/12/01 00:06:23;;;;;;;325.17;82.43;;;;;;;2.27;60.09;99395.59;342512;28;836;-70
2021/12/01 00:06:34;;;;;;;325.87;84.07;;;;;;;2.27;59.92;99393.00;343637;28;2068;-70
2021/12/01 00:06:45;;;;;;;326.88;84.35;;;;;;;2.28;60.42;99386.97;343813;28;2508;-70
2021/12/01 00:06:55;;;;;;;326.00;83.07;;;;;;;2.29;59.91;99390.41;343870;28;950;-70
2021/12/01 00:07:07;;;;;;;324.70;81.50;;;;;;;2.29;59.87;99388.69;341025;29;892;-70
2021/12/01 00:07:18;;;;;;;324.67;82.00;;;;;;;2.29;60.38;99383.50;342890;28;1525;-70
2021/12/01 00:07:29;;;;;;;325.00;82.20;;;;;;;2.30;60.31;99389.53;345859;28;1787;-70
2021/12/01 00:07:40;;;;;;;327.42;83.65;;;;;;;2.29;59.82;99388.69;346353;28;971;-70
2021/12/01 00:07:50;;;;;;;327.83;83.50;;;;;;;2.31;60.11;99384.34;346465;28;2018;-70
2021/12/01 00:08:01;;;;;;;327.80;83.67;;;;;;;2.30;60.70;99382.66;346456;28;802;-70
2021/12/01 00:08:11;;;;;;;324.48;81.32;;;;;;;2.29;60.34;99377.50;347892;28;1010;-70
2021/12/01 00:08:22;;;;;;;323.47;80.83;;;;;;;2.28;60.62;99379.22;344855;28;1306;-70
2021/12/01 00:08:33;;;;;;;325.05;81.57;;;;;;;2.30;60.45;99390.38;346536;28;1975;-70
2021/12/01 00:08:44;;;;;;;327.55;83.78;;;;;;;2.30;60.76;99382.66;345176;28;2141;-70
2021/12/01 00:08:54;;;;;;;327.10;83.93;;;;;;;2.32;60.47;99383.47;346485;28;1373;-70
2021/12/01 00:09:05;;;;;;;325.05;82.53;;;;;;;2.29;59.96;99378.34;345061;28;933;-70
2021/12/01 00:09:15;;;;;;;323.87;81.10;;;;;;;2.31;60.59;99383.50;342319;28;1484;-70
2021/12/01 00:09:26;;;;;;;324.23;81.30;;;;;;;2.32;59.94;99383.47;343931;28;1054;-70
2021/12/01 00:09:36;;;;;;;324.23;82.40;;;;;;;2.31;59.82;99381.78;344975;28;1479;-70
2021/12/01 00:09:46;;;;;;;324.93;82.83;;;;;;;2.28;60.30;99386.97;343946;28;2078;-70
2021/12/01 00:09:57;;;;;;;324.90;82.53;;;;;;;2.27;60.49;99374.06;345226;28;1383;-70
2021/12/01 00:10:07;;;;;;;325.53;82.00;;;;;;;2.26;60.47;99385.28;342440;28;924;-70
2021/12/01 00:10:18;;;;;;;325.42;82.40;;;;;;;2.24;60.22;99380.13;346435;28;1368;-70
2021/12/01 00:10:29;;;;;;;325.40;82.68;;;;;;;2.25;60.47;99379.25;346355;28;1417;-70
2021/12/01 00:10:40;;;;;;;324.77;82.40;;;;;;;2.28;59.69;99381.81;343718;28;1578;-70
2021/12/01 00:10:51;;;;;;;325.55;82.55;;;;;;;2.29;60.26;99373.19;343812;28;1490;-70
2021/12/01 00:11:01;;;;;;;325.75;83.00;;;;;;;2.30;59.87;99376.63;346355;28;1270;-70
2021/12/01 00:11:11;;;;;;;325.20;82.40;;;;;;;2.29;60.25;99375.78;345245;28;819;-70
2021/12/01 00:11:22;;;;;;;324.90;81.60;;;;;;;2.28;60.37;99371.47;346076;28;2003;-70
2021/12/01 00:11:32;;;;;;;325.13;82.17;;;;;;;2.28;59.66;99374.06;342432;28;1786;-70
2021/12/01 00:11:43;;;;;;;325.40;82.60;;;;;;;2.29;60.07;99373.19;339888;29;861;-70
2021/12/01 00:11:53;;;;;;;325.60;82.73;;;;;;;2.29;59.35;99373.19;345101;28;1782;-70
2021/12/01 00:12:04;;;;;;;324.77;81.63;;;;;;;2.28;59.53;99376.66;346689;28;1003;-70
2021/12/01 00:12:14;;;;;;;324.50;81.80;;;;;;;2.27;59.61;99369.78;346401;28;1234;-70
2021/12/01 00:12:24;;;;;;;323.40;81.53;;;;;;;2.28;59.82;99376.66;344868;28;1827;-70
2021/12/01 00:12:35;;;;;;;324.23;82.43;;;;;;;2.27;59.60;99372.34;342233;28;2074;-70
2021/12/01 00:12:45;;;;;;;324.73;83.03;;;;;;;2.28;59.38;99376.66;344603;28;2033;-70
2021/12/01 00:12:56;;;;;;;325.03;82.47;;;;;;;2.28;59.91;99366.31;344715;28;2144;-70
2021/12/01 00:13:08;;;;;;;324.20;81.95;;;;;;;2.31;59.61;99378.34;346342;28;1768;-70
2021/12/01 00:13:20;;;;;;;324.10;82.38;;;;;;;2.30;59.59;99374.91;346430;28;977;-70
2021/12/01 00:13:32;;;;;;;324.77;82.47;;;;;;;2.30;59.82;99374.91;342538;28;921;-70
2021/12/01 00:13:43;;;;;;;324.20;81.55;;;;;;;2.32;59.90;99378.31;343924;28;885;-70
2021/12/01 00:13:53;;;;;;;324.27;80.63;;;;;;;2.32;59.62;99378.31;344377;28;991;-70
2021/12/01 00:14:04;;;;;;;325.33;81.25;;;;;;;2.33;59.25;99374.00;343834;28;2005;-70
2021/12/01 00:14:14;;;;;;;324.47;81.30;;;;;;;2.33;59.48;99372.28;346584;28;943;-70
2021/12/01 00:14:24;;;;;;;324.63;83.00;;;;;;;2.32;59.82;99383.47;342329;28;2025;-70
2021/12/01 00:14:35;;;;;;;325.02;83.03;;;;;;;2.31;58.90;99381.78;343034;28;2005;-70
2021/12/01 00:14:45;;;;;;;325.38;82.65;;;;;;;2.31;59.18;99381.78;346508;28;1215;-70
2021/12/01 00:14:56;;;;;;;326.50;83.30;;;;;;;2.30;59.24;99377.47;345290;28;855;-70
2021/12/01 00:15:06;;;;;;;326.05;83.50;;;;;;;2.30;58.97;99379.22;345595;28;1699;-70
2021/12/01 00:15:18;;;;;;;327.00;83.63;;;;;;;2.32;59.22;99378.31;346639;28;868;-70
2021/12/01 00:15:28;;;;;;;325.65;82.50;;;;;;;2.31;59.07;99381.78;345082;28;1537;-70
2021/12/01 00:15:40;;;;;;;325.80;83.53;;;;;;;2.32;59.57;99372.31;346512;28;1706;-70
2021/12/01 00:15:51;;;;;;;325.98;83.95;;;;;;;2.32;59.01;99372.31;346524;28;1554;-70
2021/12/01 00:16:01;;;;;;;324.77;82.88;;;;;;;2.32;59.41;99380.03;345296;28;965;-70
2021/12/01 00:16:12;;;;;;;324.67;82.03;;;;;;;2.32;59.72;99383.47;344939;28;2042;-70
2021/12/01 00:16:22;;;;;;;323.30;80.53;;;;;;;2.32;59.87;99378.31;345951;28;861;-70
2021/12/01 00:16:33;;;;;;;323.88;81.57;;;;;;;2.32;59.64;99382.63;343860;28;2190;-70
2021/12/01 00:16:43;;;;;;;324.10;81.57;;;;;;;2.32;59.59;99377.47;341159;29;846;-70
2021/12/01 00:16:54;;;;;;;325.17;82.57;;;;;;;2.30;59.59;99374.91;347435;28;963;-70
2021/12/01 00:17:04;;;;;;;325.37;82.70;;;;;;;2.31;59.62;99381.78;346403;28;1063;-70
2021/12/01 00:17:15;;;;;;;324.57;82.83;;;;;;;2.29;59.63;99377.50;346444;28;1695;-70
2021/12/01 00:17:25;;;;;;;325.40;83.83;;;;;;;2.30;59.61;99380.06;346473;28;1798;-70
2021/12/01 00:17:36;;;;;;;325.27;83.22;;;;;;;2.29;59.51;99380.94;343608;28;2081;-70
2021/12/01 00:17:46;;;;;;;325.63;84.60;;;;;;;2.32;59.78;99392.94;342560;28;861;-70
2021/12/01 00:17:56;;;;;;;325.37;84.57;;;;;;;2.30;59.74;99385.22;343719;28;885;-70
2021/12/01 00:18:07;;;;;;;326.07;85.47;;;;;;;2.31;59.73;99384.34;342472;28;953;-70
2021/12/01 00:18:17;;;;;;;326.77;86.03;;;;;;;2.28;59.51;99386.13;345257;28;949;-70
2021/12/01 00:18:28;;;;;;;326.38;84.85;;;;;;;2.30;59.59;99382.66;343972;28;950;-70
2021/12/01 00:18:38;;;;;;;325.80;83.53;;;;;;;2.31;59.64;99384.34;345762;28;878;-70
2021/12/01 00:18:49;;;;;;;325.25;82.35;;;;;;;2.31;59.31;99381.78;346279;28;2317;-70
2021/12/01 00:18:59;;;;;;;325.20;83.37;;;;;;;2.30;59.68;99380.06;346394;28;877;-70
2021/12/01 00:19:09;;;;;;;324.97;82.93;;;;;;;2.31;59.82;99374.03;343811;28;2182;-70
2021/12/01 00:19:20;;;;;;;325.23;83.32;;;;;;;2.31;59.74;99380.91;344791;28;904;-70
2021/12/01 00:19:30;;;;;;;325.60;82.57;;;;;;;2.29;59.60;99386.09;345210;28;1922;-70
2021/12/01 00:19:40;;;;;;;324.65;81.88;;;;;;;2.31;59.64;99383.50;344838;28;1479;-70
2021/12/01 00:19:51;;;;;;;325.57;81.50;;;;;;;2.31;59.43;99375.75;346034;28;1564;-70
2021/12/01 00:20:05;;;;;;;324.70;80.60;;;;;;;2.33;59.06;99384.34;345190;28;1473;-70
2021/12/01 00:20:16;;;;;;;323.55;80.35;;;;;;;2.33;59.98;99386.91;343773;28;1264;-70
2021/12/01 00:20:27;;;;;;;323.17;81.43;;;;;;;2.32;59.34;99388.66;345022;28;2368;-70
2021/12/01 00:20:37;;;;;;;323.92;82.18;;;;;;;2.32;59.40;99388.66;342436;28;1221;-70
2021/12/01 00:20:48;;;;;;;325.03;81.97;;;;;;;2.33;59.83;99385.19;345251;28;855;-70
2021/12/01 00:20:58;;;;;;;325.97;82.23;;;;;;;2.32;59.98;99369.72;346451;28;896;-70
2021/12/01 00:21:09;;;;;;;326.23;82.68;;;;;;;2.31;59.66;99376.59;345127;28;909;-70
2021/12/01 00:21:19;;;;;;;326.23;82.97;;;;;;;2.31;59.13;99379.19;343978;28;1077;-70
2021/12/01 00:21:29;;;;;;;324.83;82.22;;;;;;;2.29;59.41;99378.34;345148;28;1106;-70
2021/12/01 00:21:40;;;;;;;324.80;81.70;;;;;;;2.32;59.79;99382.63;342227;28;1944;-70
2021/12/01 00:21:50;;;;;;;325.47;82.87;;;;;;;2.33;59.88;99379.19;345081;28;2035;-70
2021/12/01 00:22:01;;;;;;;325.92;82.82;;;;;;;2.32;59.58;99380.91;343915;28;963;-70
2021/12/01 00:22:11;;;;;;;324.83;83.10;;;;;;;2.31;59.27;99381.78;345222;28;845;-70
2021/12/01 00:22:21;;;;;;;324.60;82.90;;;;;;;2.32;59.19;99380.91;342440;28;1011;-70
2021/12/01 00:22:32;;;;;;;324.67;82.57;;;;;;;2.31;59.48;99381.78;342470;28;2631;-70
2021/12/01 00:22:42;;;;;;;325.05;82.40;;;;;;;2.30;59.08;99376.63;342439;28;940;-70
2021/12/01 00:22:53;;;;;;;325.80;82.57;;;;;;;2.30;59.54;99380.06;344594;28;1923;-70
2021/12/01 00:23:03;;;;;;;324.83;82.65;;;;;;;2.30;59.67;99380.06;345533;28;1748;-70
2021/12/01 00:23:14;;;;;;;326.17;83.67;;;;;;;2.31;59.80;99380.91;345243;28;1205;-70
2021/12/01 00:23:24;;;;;;;325.77;82.82;;;;;;;2.32;59.33;99385.22;342774;28;1561;-70
2021/12/01 00:23:34;;;;;;;325.73;82.17;;;;;;;2.32;59.20;99386.06;346357;28;1213;-70
2021/12/01 00:23:45;;;;;;;325.15;81.50;;;;;;;2.32;59.48;99382.63;345213;28;1094;-70
2021/12/01 00:23:55;;;;;;;324.50;81.73;;;;;;;2.31;59.75;99381.78;346229;28;885;-70
2021/12/01 00:24:06;;;;;;;325.40;83.80;;;;;;;2.29;59.15;99383.50;344967;28;1586;-70
2021/12/01 00:24:16;;;;;;;326.40;84.40;;;;;;;2.28;59.42;99379.22;345274;28;928;-71
2021/12/01 00:24:26;;;;;;;326.48;84.15;;;;;;;2.30;59.34;99392.97;345224;28;1765;-70
2021/12/01 00:24:37;;;;;;;326.23;83.40;;;;;;;2.28;58.89;99389.56;348076;28;1392;-70
2021/12/01 00:24:47;;;;;;;326.23;84.32;;;;;;;2.29;59.85;99387.81;345808;28;1187;-70
2021/12/01 00:24:57;;;;;;;327.03;84.53;;;;;;;2.27;59.09;99384.41;343664;28;2220;-70
2021/12/01 00:25:09;;;;;;;326.67;83.93;;;;;;;2.27;59.40;99390.41;343815;28;1188;-70
2021/12/01 00:25:22;;;;;;;325.35;82.22;;;;;;;2.27;59.73;99395.59;343582;28;1931;-70
2021/12/01 00:25:35;;;;;;;325.17;82.60;;;;;;;2.28;59.68;99389.56;346576;28;960;-70
2021/12/01 00:25:46;;;;;;;326.48;83.97;;;;;;;2.29;59.35;99393.00;346623;28;986;-70
2021/12/01 00:25:56;;;;;;;326.40;83.67;;;;;;;2.30;59.81;99390.38;346466;28;1677;-70
2021/12/01 00:26:07;;;;;;;325.35;83.13;;;;;;;2.32;59.19;99396.41;345006;28;1487;-70
2021/12/01 00:26:17;;;;;;;324.90;82.37;;;;;;;2.31;59.51;99392.09;346453;28;912;-70
2021/12/01 00:26:27;;;;;;;325.15;82.65;;;;;;;2.31;59.89;99394.69;345333;28;2485;-70
2021/12/01 00:26:38;;;;;;;324.47;81.80;;;;;;;2.34;59.38;99397.22;344540;28;897;-70
2021/12/01 00:26:48;;;;;;;326.08;83.70;;;;;;;2.34;59.63;99399.81;342459;28;2166;-70
2021/12/01 00:26:59;;;;;;;326.37;83.67;;;;;;;2.35;59.25;99398.09;343800;28;826;-70
2021/12/01 00:27:09;;;;;;;327.00;84.25;;;;;;;2.36;59.55;99404.09;343680;28;1136;-70
2021/12/01 00:27:20;;;;;;;327.10;84.73;;;;;;;2.36;59.26;99398.94;343769;28;846;-70
2021/12/01 00:27:30;;;;;;;327.77;85.78;;;;;;;2.34;59.70;99397.22;343652;28;1983;-70
2021/12/01 00:27:42;;;;;;;328.33;86.57;;;;;;;2.34;59.44;99401.53;343624;28;1942;-70
2021/12/01 00:27:53;;;;;;;327.10;85.55;;;;;;;2.34;59.46;99397.22;343650;28;2062;-70
2021/12/01 00:28:04;;;;;;;327.05;86.57;;;;;;;2.34;59.08;99397.22;343631;28;1467;-70
2021/12/01 00:28:14;;;;;;;326.20;85.40;;;;;;;2.34;59.07;99397.22;345150;28;1302;-70
2021/12/01 00:28:25;;;;;;;326.05;85.18;;;;;;;2.36;59.58;99397.22;343647;28;1408;-70
2021/12/01 00:28:36;;;;;;;325.40;83.40;;;;;;;2.37;59.94;99401.50;343863;28;1200;-70
2021/12/01 00:28:46;;;;;;;325.85;83.30;;;;;;;2.38;59.49;99404.94;343863;28;905;-70
2021/12/01 00:28:57;;;;;;;326.92;83.65;;;;;;;2.37;59.36;99400.66;345031;28;1159;-70
2021/12/01 00:29:07;;;;;;;326.70;83.07;;;;;;;2.35;59.40;99403.25;345693;28;852;-70
2021/12/01 00:29:17;;;;;;;325.95;82.72;;;;;;;2.33;59.58;99403.28;343742;28;1348;-70
2021/12/01 00:29:28;;;;;;;325.67;82.70;;;;;;;2.33;59.90;99400.69;346387;28;1261;-70
2021/12/01 00:29:38;;;;;;;325.77;83.75;;;;;;;2.34;59.14;99402.41;346295;28;1593;-70
2021/12/01 00:29:49;;;;;;;325.90;83.77;;;;;;;2.37;59.79;99400.66;345416;28;1614;-70
2021/12/01 00:30:00;;;;;;;326.20;84.72;;;;;;;2.37;59.88;99406.66;341136;28;1520;-70
2021/12/01 00:30:11;;;;;;;326.13;84.50;;;;;;;2.36;59.43;99404.09;343556;28;958;-70
2021/12/01 00:30:22;;;;;;;326.87;84.40;;;;;;;2.37;60.08;99406.66;343599;28;1392;-70
2021/12/01 00:30:32;;;;;;;327.83;85.07;;;;;;;2.36;59.43;99399.78;342344;28;2195;-70
2021/12/01 00:30:43;;;;;;;329.35;87.20;;;;;;;2.37;59.92;99398.06;343900;28;977;-70
2021/12/01 00:30:53;;;;;;;327.63;86.03;;;;;;;2.38;59.65;99405.81;343704;28;2015;-70
2021/12/01 00:31:04;;;;;;;327.30;84.95;;;;;;;2.39;59.12;99407.50;345079;28;946;-70
2021/12/01 00:31:14;;;;;;;326.23;84.00;;;;;;;2.39;59.61;99406.66;346510;28;1284;-70
2021/12/01 00:31:24;;;;;;;326.25;83.78;;;;;;;2.38;59.34;99405.81;347182;28;2004;-70
2021/12/01 00:31:35;;;;;;;325.27;83.83;;;;;;;2.39;59.45;99404.06;347743;28;1170;-70
2021/12/01 00:31:45;;;;;;;324.42;82.28;;;;;;;2.40;59.94;99405.78;346582;28;889;-70
2021/12/01 00:31:56;;;;;;;325.07;82.37;;;;;;;2.39;59.22;99410.09;342357;28;2179;-69
2021/12/01 00:32:07;;;;;;;325.00;82.47;;;;;;;2.40;60.07;99410.94;344619;28;1754;-69
2021/12/01 00:32:17;;;;;;;327.00;85.10;;;;;;;2.37;59.58;99405.81;343692;28;2472;-69
2021/12/01 00:32:28;;;;;;;325.97;85.13;;;;;;;2.38;59.58;99412.69;344740;28;1717;-69
2021/12/01 00:32:38;;;;;;;326.35;85.28;;;;;;;2.35;59.61;99403.25;343343;28;1336;-69
2021/12/01 00:32:49;;;;;;;326.25;85.00;;;;;;;2.38;59.66;99410.09;342664;28;1803;-69
2021/12/01 00:32:59;;;;;;;326.67;86.13;;;;;;;2.39;59.75;99409.25;343015;28;1655;-69
2021/12/01 00:33:11;;;;;;;327.17;85.72;;;;;;;2.38;59.42;99400.63;344513;28;1446;-69
2021/12/01 00:33:22;;;;;;;327.42;85.45;;;;;;;2.39;59.86;99398.91;345119;28;944;-69
2021/12/01 00:33:33;;;;;;;326.48;83.82;;;;;;;2.39;59.94;99404.06;346516;28;1631;-69
2021/12/01 00:33:43;;;;;;;327.03;85.17;;;;;;;2.39;59.79;99404.06;345086;28;2517;-69
2021/12/01 00:33:53;;;;;;;327.25;85.50;;;;;;;2.38;59.60;99398.06;344695;28;1211;-69
2021/12/01 00:34:04;;;;;;;327.57;86.03;;;;;;;2.38;59.76;99394.63;344883;28;1202;-69
2021/12/01 00:34:16;;;;;;;326.73;83.72;;;;;;;2.38;59.82;99407.53;343782;28;1369;-69
2021/12/01 00:34:26;;;;;;;326.42;83.40;;;;;;;2.36;59.81;99393.78;344127;28;1268;-69
2021/12/01 00:34:36;;;;;;;326.37;84.00;;;;;;;2.35;60.41;99398.09;342592;28;1355;-69
2021/12/01 00:34:47;;;;;;;326.13;84.93;;;;;;;2.36;60.19;99396.34;347950;28;1595;-69
2021/12/01 00:34:59;;;;;;;326.57;84.77;;;;;;;2.36;60.40;99401.53;345096;28;2128;-69
2021/12/01 00:35:09;;;;;;;326.42;85.07;;;;;;;2.35;60.16;99403.25;343635;28;1516;-69
2021/12/01 00:35:20;;;;;;;326.23;83.90;;;;;;;2.34;60.20;99407.56;347781;28;2066;-69
2021/12/01 00:35:30;;;;;;;326.73;84.17;;;;;;;2.34;59.89;99406.69;346583;28;829;-69
2021/12/01 00:35:40;;;;;;;327.77;84.15;;;;;;;2.33;60.26;99398.09;347730;28;2083;-69
2021/12/01 00:35:52;;;;;;;329.10;85.53;;;;;;;2.34;59.75;99410.13;345184;28;944;-69
2021/12/01 00:36:02;;;;;;;328.60;85.68;;;;;;;2.36;60.14;99410.13;347915;28;957;-69
2021/12/01 00:36:14;;;;;;;327.83;84.93;;;;;;;2.36;60.52;99404.09;345238;28;927;-69
2021/12/01 00:36:27;;;;;;;325.95;83.85;;;;;;;2.36;60.67;99404.09;346336;28;1281;-69
2021/12/01 00:36:38;;;;;;;327.05;84.80;;;;;;;2.37;59.90;99409.25;346401;28;989;-69
2021/12/01 00:36:48;;;;;;;328.80;86.85;;;;;;;2.38;60.16;99407.53;343807;28;1176;-69
2021/12/01 00:36:59;;;;;;;328.63;86.73;;;;;;;2.37;60.02;99411.84;344962;28;1871;-69
2021/12/01 00:37:09;;;;;;;327.10;84.53;;;;;;;2.39;60.40;99409.25;343827;28;1027;-69
2021/12/01 00:37:19;;;;;;;326.53;83.87;;;;;;;2.41;60.42;99417.81;346474;28;1197;-69
2021/12/01 00:37:30;;;;;;;326.98;83.68;;;;;;;2.40;59.57;99405.78;346413;28;2422;-69
2021/12/01 00:37:40;;;;;;;327.90;84.67;;;;;;;2.37;60.50;99414.41;343540;28;2083;-69
2021/12/01 00:37:51;;;;;;;327.25;83.85;;;;;;;2.37;60.56;99413.56;343729;28;1760;-69
2021/12/01 00:38:01;;;;;;;327.33;84.33;;;;;;;2.36;60.31;99411.84;343645;28;1653;-69
2021/12/01 00:38:12;;;;;;;327.10;84.32;;;;;;;2.34;60.28;99407.56;345039;28;2177;-69
2021/12/01 00:38:22;;;;;;;327.27;84.33;;;;;;;2.36;60.74;99404.97;343763;28;2187;-69
2021/12/01 00:38:35;;;;;;;327.77;84.90;;;;;;;2.36;61.17;99409.28;345256;28;801;-69
2021/12/01 00:38:45;;;;;;;328.27;85.28;;;;;;;2.33;60.77;99405.84;345192;28;977;-69
2021/12/01 00:38:56;;;;;;;327.38;84.75;;;;;;;2.32;61.05;99404.13;347221;28;2250;-69
2021/12/01 00:39:06;;;;;;;327.10;85.63;;;;;;;2.33;60.17;99405.84;345124;28;1967;-69
2021/12/01 00:39:16;;;;;;;327.48;86.82;;;;;;;2.32;61.25;99398.97;343802;28;1009;-69
2021/12/01 00:39:27;;;;;;;329.40;87.80;;;;;;;2.32;60.56;99406.72;343524;28;848;-69
2021/12/01 00:39:37;;;;;;;328.63;87.90;;;;;;;2.32;61.10;99404.13;343765;28;1918;-69
2021/12/01 00:39:48;;;;;;;328.37;87.30;;;;;;;2.33;60.44;99405.00;345152;28;1075;-69
2021/12/01 00:39:58;;;;;;;328.65;87.07;;;;;;;2.32;60.31;99405.88;343532;28;1922;-69
2021/12/01 00:40:10;;;;;;;329.17;86.10;;;;;;;2.32;60.63;99401.56;343763;28;1069;-69
2021/12/01 00:40:20;;;;;;;329.05;85.40;;;;;;;2.33;60.65;99402.41;345065;28;1066;-69
2021/12/01 00:40:31;;;;;;;328.38;85.20;;;;;;;2.32;60.66;99400.69;346627;28;958;-69
2021/12/01 00:40:41;;;;;;;328.25;85.53;;;;;;;2.32;61.16;99409.31;342728;28;1744;-69
2021/12/01 00:40:52;;;;;;;328.10;86.43;;;;;;;2.32;60.91;99400.69;343805;28;1881;-69
2021/12/01 00:41:04;;;;;;;327.13;85.25;;;;;;;2.30;60.87;99397.28;343828;28;1051;-69
2021/12/01 00:41:15;;;;;;;327.02;85.53;;;;;;;2.29;61.01;99403.31;346466;28;924;-69
2021/12/01 00:41:25;;;;;;;327.50;85.22;;;;;;;2.30;60.60;99403.31;347426;28;1606;-69
2021/12/01 00:41:36;;;;;;;328.17;85.40;;;;;;;2.33;60.65;99405.84;346501;28;855;-69
2021/12/01 00:41:48;;;;;;;329.17;84.78;;;;;;;2.33;61.26;99405.84;346430;28;1320;-69
2021/12/01 00:42:00;;;;;;;330.02;84.65;;;;;;;2.32;60.96;99409.31;344246;28;1757;-70
2021/12/01 00:42:11;;;;;;;329.30;83.90;;;;;;;2.34;60.82;99406.69;344982;28;2039;-70
2021/12/01 00:42:22;;;;;;;327.50;84.03;;;;;;;2.34;60.62;99409.28;346346;28;1098;-70
2021/12/01 00:42:32;;;;;;;326.97;84.53;;;;;;;2.33;61.32;99405.84;344918;28;2116;-70
2021/12/01 00:42:43;;;;;;;326.37;84.47;;;;;;;2.33;61.42;99405.84;343798;28;953;-70
2021/12/01 00:42:54;;;;;;;327.08;85.55;;;;;;;2.31;60.86;99405.00;342938;28;2004;-70
2021/12/01 00:43:04;;;;;;;328.30;85.33;;;;;;;2.31;61.57;99407.59;342243;28;1135;-70
2021/12/01 00:43:18;;;;;;;328.50;84.80;;;;;;;2.30;61.36;99400.72;342440;28;1397;-70
2021/12/01 00:43:29;;;;;;;327.83;84.30;;;;;;;2.32;60.84;99400.69;342606;28;2230;-70
2021/12/01 00:43:39;;;;;;;327.13;83.73;;;;;;;2.31;60.86;99397.25;345737;28;845;-70
2021/12/01 00:43:50;;;;;;;327.25;84.57;;;;;;;2.28;61.16;99394.72;345295;28;1875;-70
2021/12/01 00:44:00;;;;;;;325.70;83.65;;;;;;;2.27;60.87;99398.16;346619;28;915;-70
2021/12/01 00:44:11;;;;;;;325.13;82.73;;;;;;;2.27;60.84;99399.91;346442;28;1978;-70
2021/12/01 00:44:21;;;;;;;327.88;84.47;;;;;;;2.26;60.97;99393.03;346458;28;2075;-70
2021/12/01 00:44:34;;;;;;;328.23;84.70;;;;;;;2.27;60.75;99397.31;343869;28;841;-70
2021/12/01 00:44:55;;;;;;;326.88;84.88;;;;;;;2.25;60.98;99396.47;343723;28;1505;-70
2021/12/01 00:45:21;;;;;;;327.67;84.10;;;;;;;2.25;60.88;99397.31;343683;28;1899;-70
2021/12/01 00:45:32;;;;;;;327.50;86.20;;;;;;;2.27;60.83;99390.41;345170;28;976;-70
2021/12/01 00:45:53;;;;;;;327.45;85.65;;;;;;;2.28;61.06;99396.44;346222;28;821;-70
2021/12/01 00:46:35;;;;;;;327.63;85.10;;;;;;;2.30;60.78;99395.56;345179;28;943;-70
2021/12/01 00:47:14;;;;;;;327.70;85.18;;;;;;;2.24;61.13;99389.59;345017;28;2670;-70
2021/12/01 00:47:49;;;;;;;329.20;85.85;;;;;;;2.24;61.38;99395.63;344326;28;2422;-70
2021/12/01 00:47:55;;;;;;;329.23;84.90;;;;;;;2.20;61.46;99396.53;344488;28;1235;-70
2021/12/01 00:48:06;;;;;;;329.48;85.70;;;;;;;2.21;61.63;99390.50;344020;28;958;-70
2021/12/01 00:48:19;;;;;;;329.43;87.10;;;;;;;2.21;60.91;99390.50;345176;28;846;-70
2021/12/01 00:48:29;;;;;;;329.17;87.68;;;;;;;2.22;61.82;99389.63;346455;28;886;-70
2021/12/01 00:48:40;;;;;;;330.27;88.37;;;;;;;2.22;61.25;99393.91;343704;28;1055;-70
2021/12/01 00:48:51;;;;;;;329.17;86.25;;;;;;;2.21;61.79;99385.31;345041;28;928;-70
2021/12/01 00:49:01;;;;;;;329.05;86.57;;;;;;;2.23;61.47;99393.06;343631;28;1323;-70
2021/12/01 00:49:12;;;;;;;328.53;86.70;;;;;;;2.22;61.32;99396.50;346200;28;1058;-70
2021/12/01 00:49:22;;;;;;;328.85;87.07;;;;;;;2.20;61.47;99388.78;344997;28;985;-70
2021/12/01 00:49:34;;;;;;;330.53;86.70;;;;;;;2.19;61.33;99392.22;347589;28;1318;-70
2021/12/01 00:49:44;;;;;;;330.30;86.25;;;;;;;2.19;61.62;99391.38;346589;28;876;-70
2021/12/01 00:49:54;;;;;;;329.58;87.05;;;;;;;2.17;61.03;99393.13;343976;28;1274;-70
2021/12/01 00:50:05;;;;;;;329.40;87.97;;;;;;;2.16;61.37;99391.44;344860;28;1988;-70
2021/12/01 00:50:22;;;;;;;330.50;88.30;;;;;;;2.14;61.44;99388.88;342520;28;948;-70
2021/12/01 00:50:33;;;;;;;329.88;86.68;;;;;;;2.14;61.84;99385.44;342567;28;881;-70
2021/12/01 00:50:44;;;;;;;330.80;87.68;;;;;;;2.12;61.96;99388.03;343588;28;1645;-70
2021/12/01 00:50:54;;;;;;;330.58;87.18;;;;;;;2.13;61.56;99389.75;342334;28;1916;-70
2021/12/01 00:51:05;;;;;;;331.70;87.33;;;;;;;2.14;61.47;99388.88;343692;28;898;-70
2021/12/01 00:51:16;;;;;;;331.67;86.05;;;;;;;2.15;61.63;99385.41;343871;28;962;-70
2021/12/01 00:51:26;;;;;;;333.15;89.28;;;;;;;2.17;61.54;99391.38;343458;28;1742;-72
2021/12/01 00:51:37;;;;;;;333.27;89.87;;;;;;;2.19;61.57;99391.38;344992;28;1741;-70
2021/12/01 00:51:48;;;;;;;332.27;90.22;;;;;;;2.17;62.05;99386.22;345080;28;1314;-70
2021/12/01 00:51:58;;;;;;;331.98;87.68;;;;;;;2.19;61.70;99391.38;345030;28;1544;-70
2021/12/01 00:52:09;;;;;;;332.48;87.20;;;;;;;2.16;61.28;99392.28;345155;28;882;-70
2021/12/01 00:52:19;;;;;;;333.40;87.27;;;;;;;2.13;61.46;99389.75;347818;28;1769;-70
2021/12/01 00:52:30;;;;;;;333.15;89.10;;;;;;;2.13;62.09;99388.88;344639;28;1704;-70
2021/12/01 00:52:40;;;;;;;335.23;92.33;;;;;;;2.12;61.73;99389.75;345153;28;1162;-70